createdAt,value
2018-07-03T00:01:05.738Z,17.80
2018-07-03T00:03:09.909Z,17.70
2018-07-03T00:05:13.991Z,17.60
2018-07-03T00:07:18.199Z,17.60
2018-07-03T00:09:22.158Z,17.50
2018-07-03T00:11:26.342Z,17.60
2018-07-03T00:13:30.402Z,17.60
2018-07-03T00:15:34.700Z,17.60
2018-07-03T00:17:38.808Z,17.60
2018-07-03T00:19:42.956Z,17.50
2018-07-03T00:21:46.956Z,17.50
2018-07-03T00:23:51.084Z,17.50
2018-07-03T00:25:55.068Z,17.40
2018-07-03T00:27:59.243Z,17.30
2018-07-03T00:30:03.425Z,17.40
2018-07-03T00:32:07.814Z,17.40
2018-07-03T00:34:11.812Z,17.40
2018-07-03T00:36:17.308Z,17.30
2018-07-03T00:38:21.374Z,17.30
2018-07-03T00:40:25.778Z,17.40
2018-07-03T00:42:29.835Z,17.30
2018-07-03T00:44:34.238Z,17.20
2018-07-03T00:46:38.214Z,17.30
2018-07-03T00:48:42.594Z,17.20
2018-07-03T00:50:46.613Z,17.20
2018-07-03T00:52:50.885Z,17.10
2018-07-03T00:54:55.059Z,17.10
2018-07-03T00:56:59.408Z,17.10
2018-07-03T00:59:03.781Z,17.00
2018-07-03T01:01:08.135Z,16.90
2018-07-03T01:03:12.100Z,16.80
2018-07-03T01:05:16.165Z,16.80
2018-07-03T01:07:20.275Z,16.80
2018-07-03T01:09:24.512Z,16.80
2018-07-03T01:11:28.704Z,16.80
2018-07-03T01:13:32.951Z,16.80
2018-07-03T01:15:37.140Z,16.70
2018-07-03T01:17:42.891Z,16.60
2018-07-03T01:19:47.053Z,16.60
2018-07-03T01:21:51.036Z,16.50
2018-07-03T01:23:57.470Z,16.30
2018-07-03T01:26:01.728Z,16.30
2018-07-03T01:28:05.821Z,16.40
2018-07-03T01:30:10.010Z,16.40
2018-07-03T01:32:13.928Z,16.30
2018-07-03T01:34:18.083Z,16.20
2018-07-03T01:36:22.048Z,16.30
2018-07-03T01:40:30.033Z,16.30
2018-07-03T01:42:36.434Z,16.30
2018-07-03T01:44:40.812Z,16.20
2018-07-03T01:46:45.049Z,16.20
2018-07-03T01:48:49.599Z,16.10
2018-07-03T01:50:53.927Z,16.10
2018-07-03T01:52:58.136Z,16.10
2018-07-03T01:55:02.336Z,16.10
2018-07-03T01:59:10.115Z,16.00
2018-07-03T02:01:14.218Z,16.00
2018-07-03T02:03:18.402Z,15.90
2018-07-03T02:05:22.539Z,15.90
2018-07-03T02:07:26.562Z,15.90
2018-07-03T02:09:30.707Z,15.80
2018-07-03T02:11:34.690Z,15.80
2018-07-03T02:13:38.824Z,15.80
2018-07-03T02:15:42.935Z,15.70
2018-07-03T02:17:47.159Z,15.80
2018-07-03T02:19:51.276Z,15.70
2018-07-03T02:21:55.618Z,15.80
2018-07-03T02:23:59.846Z,15.60
2018-07-03T02:26:04.060Z,15.60
2018-07-03T02:28:08.118Z,15.60
2018-07-03T02:30:12.293Z,15.60
2018-07-03T02:32:16.314Z,15.40
2018-07-03T02:34:20.720Z,15.40
2018-07-03T02:36:24.985Z,15.40
2018-07-03T02:38:29.153Z,15.40
2018-07-03T02:40:33.170Z,15.30
2018-07-03T02:42:37.441Z,15.40
2018-07-03T02:44:41.589Z,15.50
2018-07-03T02:46:45.711Z,15.50
2018-07-03T02:50:53.511Z,15.20
2018-07-03T02:55:01.485Z,15.20
2018-07-03T02:57:05.631Z,15.20
2018-07-03T02:59:10.054Z,15.20
2018-07-03T03:01:14.101Z,15.20
2018-07-03T03:03:18.374Z,15.30
2018-07-03T03:05:22.661Z,15.10
2018-07-03T03:07:26.970Z,15.10
2018-07-03T03:09:31.016Z,15.00
2018-07-03T03:11:35.384Z,15.00
2018-07-03T03:13:39.536Z,15.00
2018-07-03T03:15:43.784Z,15.10
2018-07-03T03:17:47.768Z,15.10
2018-07-03T03:19:51.864Z,15.10
2018-07-03T03:24:00.289Z,15.00
2018-07-03T03:26:04.430Z,15.00
2018-07-03T03:28:08.774Z,14.90
2018-07-03T03:30:12.908Z,15.00
2018-07-03T03:32:17.126Z,15.00
2018-07-03T03:34:20.909Z,15.00
2018-07-03T03:36:24.801Z,14.90
2018-07-03T03:38:28.624Z,14.90
2018-07-03T03:40:32.600Z,14.70
2018-07-03T03:42:37.497Z,14.80
2018-07-03T03:44:41.388Z,14.90
2018-07-03T03:46:45.463Z,14.90
2018-07-03T03:48:49.614Z,14.80
2018-07-03T03:50:53.920Z,14.80
2018-07-03T03:53:00.800Z,14.70
2018-07-03T03:55:05.123Z,14.70
2018-07-03T03:57:09.097Z,14.90
2018-07-03T03:59:13.224Z,14.80
2018-07-03T04:01:17.049Z,15.00
2018-07-03T04:03:20.934Z,15.00
2018-07-03T04:05:24.692Z,14.80
2018-07-03T04:07:28.573Z,14.90
2018-07-03T04:09:32.301Z,14.80
2018-07-03T04:11:36.203Z,14.80
2018-07-03T04:13:40.151Z,14.80
2018-07-03T04:15:44.022Z,14.80
2018-07-03T04:17:47.810Z,14.80
2018-07-03T04:19:51.763Z,14.80
2018-07-03T04:21:55.756Z,14.80
2018-07-03T04:23:59.654Z,15.00
2018-07-03T04:26:03.584Z,15.10
2018-07-03T04:28:08.675Z,15.20
2018-07-03T04:30:12.642Z,15.10
2018-07-03T04:32:16.418Z,15.10
2018-07-03T04:34:20.374Z,15.30
2018-07-03T04:36:24.192Z,15.50
2018-07-03T04:40:31.543Z,15.60
2018-07-03T04:42:35.397Z,15.50
2018-07-03T04:44:39.154Z,15.70
2018-07-03T04:46:43.058Z,15.70
2018-07-03T04:48:46.795Z,15.80
2018-07-03T04:50:50.689Z,15.90
2018-07-03T04:52:54.479Z,16.20
2018-07-03T04:54:58.469Z,16.30
2018-07-03T04:57:02.254Z,16.30
2018-07-03T04:59:06.676Z,16.30
2018-07-03T05:01:10.413Z,16.40
2018-07-03T05:03:14.295Z,16.50
2018-07-03T05:05:18.047Z,16.70
2018-07-03T05:07:21.923Z,16.50
2018-07-03T05:09:25.699Z,16.50
2018-07-03T05:11:31.558Z,16.80
2018-07-03T05:13:35.434Z,17.00
2018-07-03T05:15:39.213Z,17.00
2018-07-03T05:17:43.187Z,17.00
2018-07-03T05:19:46.963Z,17.00
2018-07-03T05:21:50.888Z,17.10
2018-07-03T05:23:54.632Z,17.40
2018-07-03T05:25:58.578Z,17.50
2018-07-03T05:28:02.375Z,17.70
2018-07-03T05:30:06.839Z,17.50
2018-07-03T05:32:11.901Z,17.50
2018-07-03T05:34:15.991Z,18.00
2018-07-03T05:36:19.860Z,18.40
2018-07-03T05:38:23.774Z,18.00
2018-07-03T05:40:27.546Z,17.90
2018-07-03T05:42:31.511Z,18.10
2018-07-03T05:44:35.232Z,18.20
2018-07-03T05:46:39.645Z,18.40
2018-07-03T05:48:43.404Z,18.70
2018-07-03T05:50:47.349Z,19.00
2018-07-03T05:52:51.137Z,18.90
2018-07-03T05:54:55.046Z,19.20
2018-07-03T05:56:58.830Z,19.20
2018-07-03T05:59:02.761Z,18.80
2018-07-03T06:01:06.510Z,18.90
2018-07-03T06:03:10.357Z,19.00
2018-07-03T06:05:14.126Z,19.40
2018-07-03T06:07:18.082Z,19.50
2018-07-03T06:09:22.035Z,19.80
2018-07-03T06:11:25.966Z,19.90
2018-07-03T06:13:29.717Z,20.00
2018-07-03T06:15:33.615Z,19.80
2018-07-03T06:17:37.356Z,20.00
2018-07-03T06:19:41.193Z,19.80
2018-07-03T06:21:44.998Z,20.00
2018-07-03T06:23:48.855Z,20.60
2018-07-03T06:25:52.678Z,20.90
2018-07-03T06:27:56.559Z,21.00
2018-07-03T06:30:00.337Z,21.20
2018-07-03T06:32:04.246Z,21.10
2018-07-03T06:34:08.022Z,21.30
2018-07-03T06:36:11.891Z,21.60
2018-07-03T06:38:16.739Z,21.20
2018-07-03T06:40:20.629Z,21.30
2018-07-03T06:42:24.350Z,21.50
2018-07-03T06:44:28.206Z,21.70
2018-07-03T06:46:31.975Z,22.00
2018-07-03T06:48:35.844Z,21.90
2018-07-03T06:50:39.676Z,21.30
2018-07-03T06:52:43.627Z,21.90
2018-07-03T06:54:47.393Z,22.10
2018-07-03T06:56:51.473Z,22.30
2018-07-03T06:58:55.331Z,22.70
2018-07-03T07:00:59.306Z,22.60
2018-07-03T07:03:03.276Z,22.70
2018-07-03T07:05:07.292Z,22.80
2018-07-03T07:07:11.274Z,23.30
2018-07-03T07:09:15.246Z,23.80
2018-07-03T07:11:19.055Z,23.30
2018-07-03T07:13:23.037Z,23.90
2018-07-03T07:15:26.851Z,24.10
2018-07-03T07:17:30.781Z,24.60
2018-07-03T07:19:34.593Z,24.30
2018-07-03T07:21:38.628Z,24.30
2018-07-03T07:23:42.449Z,25.00
2018-07-03T07:25:46.420Z,24.70
2018-07-03T07:27:50.219Z,25.00
2018-07-03T07:29:54.088Z,25.10
2018-07-03T07:31:57.985Z,25.20
2018-07-03T07:34:01.842Z,25.40
2018-07-03T07:36:05.700Z,24.90
2018-07-03T07:38:09.722Z,25.00
2018-07-03T07:40:13.526Z,25.20
2018-07-03T07:42:17.493Z,26.00
2018-07-03T07:44:21.335Z,25.20
2018-07-03T07:48:28.980Z,25.90
2018-07-03T07:50:32.876Z,25.80
2018-07-03T07:52:36.641Z,25.20
2018-07-03T07:54:40.513Z,25.10
2018-07-03T07:56:44.354Z,25.90
2018-07-03T07:58:48.209Z,25.90
2018-07-03T08:00:51.982Z,26.00
2018-07-03T08:02:55.899Z,26.60
2018-07-03T08:04:59.698Z,26.70
2018-07-03T08:07:03.691Z,27.30
2018-07-03T08:09:09.514Z,26.50
2018-07-03T08:11:13.535Z,26.70
2018-07-03T08:13:17.405Z,26.80
2018-07-03T08:15:21.472Z,27.20
2018-07-03T08:17:25.296Z,27.80
2018-07-03T08:19:29.286Z,27.00
2018-07-03T08:21:33.076Z,27.10
2018-07-03T08:23:36.972Z,27.50
2018-07-03T08:25:40.754Z,26.70
2018-07-03T08:27:44.689Z,26.30
2018-07-03T08:29:48.585Z,27.40
2018-07-03T08:31:52.430Z,27.60
2018-07-03T08:33:56.302Z,27.40
2018-07-03T08:36:00.169Z,26.70
2018-07-03T08:40:08.082Z,27.20
2018-07-03T08:42:11.969Z,28.10
2018-07-03T08:44:15.864Z,28.20
2018-07-03T08:46:19.678Z,28.70
2018-07-03T08:48:23.657Z,29.10
2018-07-03T08:50:27.468Z,29.60
2018-07-03T08:52:31.402Z,28.50
2018-07-03T08:54:35.211Z,28.10
2018-07-03T08:56:39.056Z,28.70
2018-07-03T08:58:42.881Z,28.10
2018-07-03T09:00:46.830Z,28.00
2018-07-03T09:02:50.606Z,28.50
2018-07-03T09:04:54.522Z,28.50
2018-07-03T09:06:58.289Z,29.20
2018-07-03T09:09:02.259Z,29.40
2018-07-03T09:11:06.115Z,30.30
2018-07-03T09:13:10.005Z,30.30
2018-07-03T09:15:13.805Z,30.10
2018-07-03T09:17:23.030Z,30.20
2018-07-03T09:19:26.942Z,30.60
2018-07-03T09:21:30.926Z,29.90
2018-07-03T09:23:34.877Z,30.80
2018-07-03T09:25:38.789Z,30.20
2018-07-03T09:27:42.664Z,29.40
2018-07-03T09:29:46.467Z,30.60
2018-07-03T09:31:50.408Z,30.40
2018-07-03T09:33:54.275Z,30.90
2018-07-03T09:35:58.248Z,29.80
2018-07-03T09:38:02.057Z,30.20
2018-07-03T09:40:06.222Z,30.80
2018-07-03T09:42:10.064Z,31.70
2018-07-03T09:44:13.961Z,30.70
2018-07-03T09:46:17.816Z,30.30
2018-07-03T09:48:21.760Z,30.10
2018-07-03T09:50:26.703Z,30.60
2018-07-03T09:52:30.586Z,29.90
2018-07-03T09:54:34.457Z,30.30
2018-07-03T09:56:38.489Z,30.10
2018-07-03T09:58:42.327Z,30.70
2018-07-03T10:00:51.441Z,31.30
2018-07-03T10:02:55.546Z,30.80
2018-07-03T10:04:59.340Z,29.80
2018-07-03T10:07:03.377Z,30.60
2018-07-03T10:09:08.967Z,30.20
2018-07-03T10:11:13.171Z,29.50
2018-07-03T10:13:17.102Z,30.30
2018-07-03T10:15:20.960Z,30.90
2018-07-03T10:17:24.822Z,30.80
2018-07-03T10:19:28.700Z,30.90
2018-07-03T10:21:32.480Z,29.80
2018-07-03T10:23:36.380Z,29.30
2018-07-03T10:25:40.220Z,29.50
2018-07-03T10:27:44.104Z,29.70
2018-07-03T10:29:47.864Z,29.10
2018-07-03T10:31:51.734Z,29.70
2018-07-03T10:33:55.504Z,30.20
2018-07-03T10:36:03.398Z,30.70
2018-07-03T10:38:07.419Z,31.00
2018-07-03T10:40:11.212Z,30.40
2018-07-03T10:42:15.255Z,30.70
2018-07-03T10:44:19.084Z,31.10
2018-07-03T10:46:22.961Z,30.60
2018-07-03T10:48:26.797Z,30.40
2018-07-03T10:50:30.764Z,31.10
2018-07-03T10:52:34.513Z,30.90
2018-07-03T10:54:38.587Z,30.40
2018-07-03T10:56:42.378Z,29.90
2018-07-03T10:58:46.266Z,29.50
2018-07-03T11:00:50.062Z,30.10
2018-07-03T11:02:53.968Z,30.10
2018-07-03T11:04:57.904Z,30.10
2018-07-03T11:07:01.812Z,30.40
2018-07-03T11:09:11.328Z,30.80
2018-07-03T11:11:15.217Z,30.20
2018-07-03T11:13:19.047Z,30.30
2018-07-03T11:15:23.131Z,29.90
2018-07-03T11:17:26.938Z,30.00
2018-07-03T11:19:31.028Z,29.80
2018-07-03T11:21:35.152Z,30.00
2018-07-03T11:23:39.081Z,30.00
2018-07-03T11:25:42.996Z,29.80
2018-07-03T11:27:46.876Z,30.40
2018-07-03T11:29:50.902Z,30.20
2018-07-03T11:31:58.151Z,30.10
2018-07-03T11:34:02.278Z,29.80
2018-07-03T11:36:06.221Z,29.70
2018-07-03T11:38:10.204Z,29.90
2018-07-03T11:40:14.071Z,30.00
2018-07-03T11:42:18.042Z,29.90
2018-07-03T11:44:21.892Z,30.00
2018-07-03T11:46:25.955Z,29.60
2018-07-03T11:48:29.783Z,29.30
2018-07-03T11:50:33.706Z,29.70
2018-07-03T11:52:38.011Z,29.70
2018-07-03T11:54:44.026Z,29.70
2018-07-03T11:56:47.973Z,29.80
2018-07-03T11:58:51.838Z,29.80
2018-07-03T12:00:56.019Z,30.10
2018-07-03T12:02:59.804Z,30.00
2018-07-03T12:05:04.008Z,29.90
2018-07-03T12:07:07.814Z,29.90
2018-07-03T12:09:12.116Z,30.10
2018-07-03T12:11:15.956Z,30.10
2018-07-03T12:13:19.845Z,30.40
2018-07-03T12:15:23.639Z,30.30
2018-07-03T12:17:27.517Z,29.30
2018-07-03T12:19:31.436Z,29.80
2018-07-03T12:21:35.339Z,29.90
2018-07-03T12:23:39.166Z,29.80
2018-07-03T12:25:43.062Z,29.70
2018-07-03T12:27:46.926Z,29.80
2018-07-03T12:29:50.869Z,29.80
2018-07-03T12:31:54.724Z,30.10
2018-07-03T12:36:02.089Z,30.10
2018-07-03T12:38:06.167Z,30.10
2018-07-03T12:40:10.124Z,30.20
2018-07-03T12:42:14.147Z,30.20
2018-07-03T12:44:18.028Z,30.20
2018-07-03T12:46:21.942Z,30.10
2018-07-03T12:48:25.798Z,30.10
2018-07-03T12:50:29.683Z,29.70
2018-07-03T12:52:33.479Z,29.70
2018-07-03T12:54:37.429Z,29.80
2018-07-03T12:56:41.261Z,30.10
2018-07-03T12:58:45.149Z,29.60
2018-07-03T13:00:49.009Z,29.40
2018-07-03T13:02:52.961Z,29.50
2018-07-03T13:04:56.789Z,29.70
2018-07-03T13:07:00.727Z,29.80
2018-07-03T13:09:06.874Z,29.90
2018-07-03T13:11:10.792Z,29.90
2018-07-03T13:13:14.667Z,30.00
2018-07-03T13:15:18.522Z,29.70
2018-07-03T13:17:22.410Z,29.20
2018-07-03T13:19:26.461Z,29.20
2018-07-03T13:21:30.294Z,29.20
2018-07-03T13:23:34.231Z,29.10
2018-07-03T13:25:38.231Z,29.00
2018-07-03T13:27:42.236Z,29.10
2018-07-03T13:29:46.067Z,29.00
2018-07-03T13:31:50.112Z,29.00
2018-07-03T13:33:53.944Z,29.10
2018-07-03T13:35:57.918Z,29.30
2018-07-03T13:38:01.840Z,29.20
2018-07-03T13:40:06.833Z,29.00
2018-07-03T13:44:14.257Z,28.50
2018-07-03T13:46:18.030Z,28.80
2018-07-03T13:48:22.010Z,28.90
2018-07-03T13:50:25.946Z,28.90
2018-07-03T13:52:30.025Z,29.00
2018-07-03T13:54:34.979Z,29.20
2018-07-03T13:56:38.931Z,29.50
2018-07-03T13:58:42.711Z,29.20
2018-07-03T14:00:46.654Z,29.20
2018-07-03T14:02:50.478Z,29.20
2018-07-03T14:04:54.375Z,29.30
2018-07-03T14:06:58.232Z,29.20
2018-07-03T14:09:02.152Z,29.40
2018-07-03T14:11:06.041Z,29.60
2018-07-03T14:13:09.989Z,29.40
2018-07-03T14:15:13.798Z,29.40
2018-07-03T14:17:17.713Z,29.20
2018-07-03T14:21:24.952Z,28.70
2018-07-03T14:23:29.900Z,28.70
2018-07-03T14:25:33.832Z,29.00
2018-07-03T14:27:37.576Z,29.50
2018-07-03T14:29:41.524Z,29.40
2018-07-03T14:31:45.283Z,29.30
2018-07-03T14:33:49.201Z,29.30
2018-07-03T14:35:53.017Z,29.20
2018-07-03T14:37:57.130Z,29.40
2018-07-03T14:40:01.036Z,29.00
2018-07-03T14:42:05.336Z,28.70
2018-07-03T14:44:09.140Z,28.90
2018-07-03T14:46:13.132Z,29.00
2018-07-03T14:48:16.922Z,29.20
2018-07-03T14:50:20.906Z,29.20
2018-07-03T14:52:24.707Z,29.20
2018-07-03T14:54:29.759Z,29.20
2018-07-03T14:56:33.768Z,29.40
2018-07-03T14:58:37.541Z,29.30
2018-07-03T15:00:41.559Z,29.40
2018-07-03T15:02:45.424Z,29.60
2018-07-03T15:04:49.501Z,29.50
2018-07-03T15:06:53.409Z,29.30
2018-07-03T15:08:57.374Z,29.20
2018-07-03T15:11:01.245Z,29.30
2018-07-03T15:13:05.572Z,29.30
2018-07-03T15:15:09.992Z,29.30
2018-07-03T15:17:13.865Z,29.30
2018-07-03T15:19:23.009Z,29.30
2018-07-03T15:21:26.909Z,29.30
2018-07-03T15:23:30.771Z,29.10
2018-07-03T15:25:34.694Z,29.00
2018-07-03T15:27:38.498Z,29.10
2018-07-03T15:29:42.387Z,29.10
2018-07-03T15:31:46.236Z,28.90
2018-07-03T15:33:50.173Z,28.80
2018-07-03T15:35:53.990Z,28.90
2018-07-03T15:37:57.976Z,29.00
2018-07-03T15:40:01.785Z,29.00
2018-07-03T15:42:05.890Z,28.90
2018-07-03T15:44:21.003Z,28.90
2018-07-03T15:46:24.890Z,28.90
2018-07-03T15:48:28.732Z,28.80
2018-07-03T15:50:32.733Z,28.90
2018-07-03T15:52:36.641Z,28.90
2018-07-03T15:54:41.193Z,29.00
2018-07-03T15:56:44.988Z,29.20
2018-07-03T15:58:48.917Z,29.00
2018-07-03T16:00:52.756Z,28.90
2018-07-03T16:03:07.866Z,28.80
2018-07-03T16:05:23.792Z,28.90
2018-07-03T16:07:40.289Z,28.80
2018-07-03T16:09:44.220Z,28.70
2018-07-03T16:11:48.041Z,28.60
2018-07-03T16:13:52.070Z,28.60
2018-07-03T16:15:55.842Z,28.70
2018-07-03T16:17:59.927Z,28.70
2018-07-03T16:20:09.900Z,28.70
2018-07-03T16:22:13.785Z,28.70
2018-07-03T16:24:17.627Z,28.70
2018-07-03T16:26:21.523Z,28.70
2018-07-03T16:28:25.337Z,28.80
2018-07-03T16:30:29.251Z,28.90
2018-07-03T16:32:33.098Z,28.80
2018-07-03T16:34:37.060Z,28.80
2018-07-03T16:36:40.875Z,28.70
2018-07-03T16:38:44.764Z,28.60
2018-07-03T16:40:48.606Z,28.50
2018-07-03T16:42:52.664Z,28.60
2018-07-03T16:44:56.491Z,28.60
2018-07-03T16:47:00.387Z,28.70
2018-07-03T16:49:05.282Z,28.60
2018-07-03T16:51:10.091Z,28.60
2018-07-03T16:53:14.079Z,28.50
2018-07-03T16:55:18.017Z,28.50
2018-07-03T16:57:21.770Z,28.50
2018-07-03T16:59:25.899Z,28.50
2018-07-03T17:01:29.764Z,28.60
2018-07-03T17:03:33.737Z,28.50
2018-07-03T17:05:37.523Z,28.40
2018-07-03T17:07:41.464Z,28.50
2018-07-03T17:09:45.247Z,28.40
2018-07-03T17:11:51.414Z,28.50
2018-07-03T17:13:55.581Z,28.50
2018-07-03T17:15:59.233Z,28.40
2018-07-03T17:18:03.252Z,28.30
2018-07-03T17:20:07.114Z,28.30
2018-07-03T17:22:11.056Z,28.20
2018-07-03T17:24:14.924Z,28.10
2018-07-03T17:26:18.805Z,28.00
2018-07-03T17:28:22.636Z,28.00
2018-07-03T17:30:26.702Z,28.00
2018-07-03T17:32:30.656Z,28.00
2018-07-03T17:34:34.853Z,28.00
2018-07-03T17:36:38.662Z,28.00
2018-07-03T17:38:42.650Z,28.00
2018-07-03T17:40:57.538Z,28.00
2018-07-03T17:44:25.421Z,28.00
2018-07-03T17:46:29.371Z,28.00
2018-07-03T17:48:33.222Z,28.00
2018-07-03T17:50:37.149Z,27.90
2018-07-03T17:52:40.965Z,27.80
2018-07-03T17:54:44.943Z,27.60
2018-07-03T17:56:48.755Z,27.60
2018-07-03T17:58:53.017Z,27.60
2018-07-03T18:00:56.880Z,27.50
2018-07-03T18:03:01.133Z,27.40
2018-07-03T18:05:05.527Z,27.30
2018-07-03T18:07:09.630Z,27.30
2018-07-03T18:09:13.888Z,27.30
2018-07-03T18:11:17.977Z,27.50
2018-07-03T18:13:21.959Z,27.60
2018-07-03T18:15:26.391Z,27.60
2018-07-03T18:19:39.783Z,27.60
2018-07-03T18:21:44.088Z,27.50
2018-07-03T18:23:49.021Z,27.40
2018-07-03T18:25:53.230Z,27.20
2018-07-03T18:27:57.247Z,27.30
2018-07-03T18:30:01.398Z,27.40
2018-07-03T18:32:06.096Z,27.30
2018-07-03T18:34:14.325Z,27.30
2018-07-03T18:36:18.797Z,27.10
2018-07-03T18:38:22.831Z,27.00
2018-07-03T18:40:26.934Z,27.00
2018-07-03T18:42:31.123Z,27.00
2018-07-03T18:44:35.821Z,26.90
2018-07-03T18:46:39.969Z,26.80
2018-07-03T18:48:44.219Z,26.70
2018-07-03T18:50:48.435Z,26.80
2018-07-03T18:52:52.387Z,26.70
2018-07-03T18:54:56.186Z,26.60
2018-07-03T18:57:00.245Z,26.60
2018-07-03T18:59:04.199Z,26.60
2018-07-03T19:01:08.268Z,26.80
2018-07-03T19:03:12.205Z,26.90
2018-07-03T19:07:20.217Z,26.80
2018-07-03T19:09:24.410Z,26.70
2018-07-03T19:11:28.230Z,26.80
2018-07-03T19:13:32.183Z,26.70
2018-07-03T19:15:36.079Z,26.60
2018-07-03T19:17:40.276Z,26.50
2018-07-03T19:19:44.118Z,26.40
2018-07-03T19:21:48.228Z,26.30
2018-07-03T19:25:55.719Z,26.10
2018-07-03T19:27:59.712Z,26.10
2018-07-03T19:30:03.835Z,26.10
2018-07-03T19:32:07.600Z,26.00
2018-07-03T19:34:11.554Z,25.90
2018-07-03T19:36:15.574Z,25.80
2018-07-03T19:38:19.633Z,25.80
2018-07-03T19:40:23.498Z,25.70
2018-07-03T19:42:27.625Z,25.60
2018-07-03T19:44:31.532Z,25.60
2018-07-03T19:46:35.509Z,25.40
2018-07-03T19:48:39.495Z,25.40
2018-07-03T19:50:43.628Z,25.30
2018-07-03T19:52:47.497Z,25.20
2018-07-03T19:54:51.421Z,25.20
2018-07-03T19:56:55.405Z,25.10
2018-07-03T19:58:59.392Z,25.00
2018-07-03T20:01:03.176Z,25.00
2018-07-03T20:03:07.120Z,24.90
2018-07-03T20:05:11.153Z,24.90
2018-07-03T20:07:15.099Z,24.90
2018-07-03T20:09:19.015Z,24.80
2018-07-03T20:11:22.941Z,24.70
2018-07-03T20:13:26.730Z,24.50
2018-07-03T20:15:30.729Z,24.30
2018-07-03T20:17:34.520Z,24.30
2018-07-03T20:19:38.477Z,24.10
2018-07-03T20:23:47.970Z,23.90
2018-07-03T20:25:51.941Z,23.80
2018-07-03T20:27:57.162Z,23.70
2018-07-03T20:30:01.151Z,23.70
2018-07-03T20:32:05.300Z,23.60
2018-07-03T20:34:09.276Z,23.50
2018-07-03T20:36:13.214Z,23.30
2018-07-03T20:40:21.400Z,23.20
2018-07-03T20:42:26.706Z,23.20
2018-07-03T20:44:30.618Z,23.10
2018-07-03T20:46:34.466Z,23.10
2018-07-03T20:48:38.545Z,23.00
2018-07-03T20:50:42.353Z,23.00
2018-07-03T20:52:46.537Z,23.00
2018-07-03T20:54:50.360Z,23.00
2018-07-03T20:56:54.286Z,23.00
2018-07-03T20:58:58.130Z,23.00
2018-07-03T21:01:02.034Z,23.00
2018-07-03T21:03:05.928Z,22.90
2018-07-03T21:05:09.798Z,22.90
2018-07-03T21:07:13.568Z,22.90
2018-07-03T21:09:17.491Z,22.80
2018-07-03T21:11:21.427Z,22.70
2018-07-03T21:13:25.437Z,22.50
2018-07-03T21:15:29.329Z,22.40
2018-07-03T21:17:33.296Z,22.40
2018-07-03T21:19:37.077Z,22.20
2018-07-03T21:21:40.972Z,22.10
2018-07-03T21:23:44.757Z,22.00
2018-07-03T21:25:48.738Z,22.00
2018-07-03T21:27:52.530Z,21.90
2018-07-03T21:29:56.459Z,21.90
2018-07-03T21:32:00.396Z,21.80
2018-07-03T21:34:04.314Z,21.70
2018-07-03T21:36:08.108Z,21.70
2018-07-03T21:38:12.027Z,21.60
2018-07-03T21:40:15.835Z,21.60
2018-07-03T21:42:19.858Z,21.60
2018-07-03T21:44:24.107Z,21.70
2018-07-03T21:46:27.949Z,21.80
2018-07-03T21:48:31.863Z,21.90
2018-07-03T21:50:35.937Z,22.00
2018-07-03T21:52:39.751Z,22.00
2018-07-03T21:56:47.179Z,22.10
2018-07-03T21:58:51.047Z,22.10
2018-07-03T22:00:55.121Z,22.20
2018-07-03T22:02:59.056Z,22.20
2018-07-03T22:05:02.856Z,22.20
2018-07-03T22:07:06.768Z,22.20
2018-07-03T22:09:12.572Z,22.30
2018-07-03T22:11:16.515Z,22.20
2018-07-03T22:13:20.343Z,22.10
2018-07-03T22:15:24.362Z,22.20
2018-07-03T22:17:28.198Z,22.10
2018-07-03T22:19:32.087Z,22.10
2018-07-03T22:21:36.765Z,22.00
2018-07-03T22:23:40.662Z,22.10
2018-07-03T22:25:44.457Z,21.90
2018-07-03T22:27:48.391Z,21.90
2018-07-03T22:29:52.122Z,21.90
2018-07-03T22:31:56.084Z,21.80
2018-07-03T22:33:59.859Z,21.80
2018-07-03T22:36:03.741Z,21.80
2018-07-03T22:38:07.967Z,21.70
2018-07-03T22:40:11.841Z,21.70
2018-07-03T22:42:15.576Z,21.70
2018-07-03T22:44:19.554Z,21.70
2018-07-03T22:46:23.305Z,21.60
2018-07-03T22:48:27.329Z,21.60
2018-07-03T22:50:31.117Z,21.50
2018-07-03T22:52:35.000Z,21.50
2018-07-03T22:54:38.835Z,21.50
2018-07-03T22:58:46.183Z,21.40
2018-07-03T23:00:50.062Z,21.40
2018-07-03T23:02:53.923Z,21.40
2018-07-03T23:04:57.894Z,21.40
2018-07-03T23:07:01.668Z,21.40
2018-07-03T23:09:07.579Z,21.40
2018-07-03T23:11:11.685Z,21.40
2018-07-03T23:13:15.796Z,21.40
2018-07-03T23:15:19.975Z,21.30
2018-07-03T23:17:24.053Z,21.20
2018-07-03T23:19:28.249Z,21.20
2018-07-03T23:21:32.303Z,21.20
2018-07-03T23:23:36.432Z,21.20
2018-07-03T23:25:40.403Z,21.20
2018-07-03T23:27:44.633Z,21.20
2018-07-03T23:29:48.903Z,21.30
2018-07-03T23:31:53.002Z,21.30
2018-07-03T23:33:57.143Z,21.20
2018-07-03T23:36:01.414Z,21.20
2018-07-03T23:38:05.464Z,21.10
2018-07-03T23:40:09.624Z,21.10
2018-07-03T23:42:13.658Z,21.10
2018-07-03T23:44:17.887Z,21.00
2018-07-03T23:46:32.885Z,21.00
2018-07-03T23:48:48.114Z,21.10
2018-07-03T23:51:03.267Z,21.10
2018-07-03T23:53:18.473Z,20.90
2018-07-03T23:55:33.518Z,20.90
2018-07-03T23:57:48.582Z,21.00
